sensor_id;sensor_type;location;lat;lon;timestamp;P1;durP1;ratioP1;P2;durP2;ratioP2
78183;SDS011;67442;44.570;18.610;2024-01-07T00:02:25;149.77;;;61.05;;
78183;SDS011;67442;44.570;18.610;2024-01-07T00:04:54;98.80;;;38.85;;
78183;SDS011;67442;44.570;18.610;2024-01-07T00:07:25;126.13;;;48.45;;
78183;SDS011;67442;44.570;18.610;2024-01-07T00:09:57;79.75;;;32.33;;
78183;SDS011;67442;44.570;18.610;2024-01-07T00:12:24;101.50;;;40.97;;
78183;SDS011;67442;44.570;18.610;2024-01-07T00:14:55;163.65;;;60.35;;
78183;SDS011;67442;44.570;18.610;2024-01-07T00:17:23;206.00;;;72.55;;
78183;SDS011;67442;44.570;18.610;2024-01-07T00:19:51;146.02;;;54.60;;
78183;SDS011;67442;44.570;18.610;2024-01-07T00:22:19;324.30;;;117.03;;
78183;SDS011;67442;44.570;18.610;2024-01-07T00:24:46;284.85;;;101.18;;
78183;SDS011;67442;44.570;18.610;2024-01-07T00:27:14;305.15;;;109.75;;
78183;SDS011;67442;44.570;18.610;2024-01-07T00:29:45;311.80;;;108.00;;
78183;SDS011;67442;44.570;18.610;2024-01-07T00:32:13;273.77;;;101.38;;
78183;SDS011;67442;44.570;18.610;2024-01-07T00:37:07;237.93;;;88.47;;
78183;SDS011;67442;44.570;18.610;2024-01-07T00:39:39;288.38;;;101.80;;
78183;SDS011;67442;44.570;18.610;2024-01-07T00:42:07;272.30;;;94.40;;
78183;SDS011;67442;44.570;18.610;2024-01-07T00:44:38;186.40;;;68.00;;
78183;SDS011;67442;44.570;18.610;2024-01-07T00:47:10;210.95;;;76.88;;
78183;SDS011;67442;44.570;18.610;2024-01-07T00:49:38;285.10;;;98.13;;
78183;SDS011;67442;44.570;18.610;2024-01-07T00:52:09;165.38;;;63.53;;
78183;SDS011;67442;44.570;18.610;2024-01-07T00:54:37;171.05;;;68.63;;
78183;SDS011;67442;44.570;18.610;2024-01-07T00:57:04;200.20;;;73.60;;
78183;SDS011;67442;44.570;18.610;2024-01-07T00:59:36;154.95;;;64.82;;
78183;SDS011;67442;44.570;18.610;2024-01-07T01:02:03;145.55;;;61.60;;
78183;SDS011;67442;44.570;18.610;2024-01-07T01:04:31;165.35;;;64.90;;
78183;SDS011;67442;44.570;18.610;2024-01-07T01:07:03;158.40;;;62.25;;
78183;SDS011;67442;44.570;18.610;2024-01-07T01:09:35;139.90;;;59.05;;
78183;SDS011;67442;44.570;18.610;2024-01-07T01:12:07;130.13;;;54.45;;
78183;SDS011;67442;44.570;18.610;2024-01-07T01:14:34;137.38;;;56.33;;
78183;SDS011;67442;44.570;18.610;2024-01-07T01:17:01;222.88;;;75.40;;
78183;SDS011;67442;44.570;18.610;2024-01-07T01:19:33;220.23;;;76.97;;
78183;SDS011;67442;44.570;18.610;2024-01-07T01:22:01;136.30;;;55.63;;
78183;SDS011;67442;44.570;18.610;2024-01-07T01:24:32;137.13;;;56.38;;
78183;SDS011;67442;44.570;18.610;2024-01-07T01:27:00;162.88;;;63.58;;
78183;SDS011;67442;44.570;18.610;2024-01-07T01:29:27;138.27;;;57.20;;
78183;SDS011;67442;44.570;18.610;2024-01-07T01:31:56;127.90;;;53.65;;
78183;SDS011;67442;44.570;18.610;2024-01-07T01:34:23;127.03;;;51.75;;
78183;SDS011;67442;44.570;18.610;2024-01-07T01:36:50;126.30;;;53.70;;
78183;SDS011;67442;44.570;18.610;2024-01-07T01:39:22;138.70;;;55.67;;
78183;SDS011;67442;44.570;18.610;2024-01-07T01:41:53;177.18;;;68.43;;
78183;SDS011;67442;44.570;18.610;2024-01-07T01:44:21;136.63;;;57.47;;
78183;SDS011;67442;44.570;18.610;2024-01-07T01:46:55;118.65;;;51.25;;
78183;SDS011;67442;44.570;18.610;2024-01-07T01:49:23;166.15;;;61.28;;
78183;SDS011;67442;44.570;18.610;2024-01-07T01:51:55;167.75;;;66.15;;
78183;SDS011;67442;44.570;18.610;2024-01-07T01:54:26;135.05;;;55.67;;
78183;SDS011;67442;44.570;18.610;2024-01-07T01:56:57;134.98;;;53.92;;
78183;SDS011;67442;44.570;18.610;2024-01-07T01:59:29;160.95;;;62.67;;
78183;SDS011;67442;44.570;18.610;2024-01-07T02:01:57;152.70;;;60.97;;
78183;SDS011;67442;44.570;18.610;2024-01-07T02:04:29;147.95;;;59.53;;
78183;SDS011;67442;44.570;18.610;2024-01-07T02:06:57;159.85;;;64.00;;
78183;SDS011;67442;44.570;18.610;2024-01-07T02:09:24;154.38;;;63.03;;
78183;SDS011;67442;44.570;18.610;2024-01-07T02:12:04;166.40;;;66.35;;
78183;SDS011;67442;44.570;18.610;2024-01-07T02:14:37;150.15;;;59.08;;
78183;SDS011;67442;44.570;18.610;2024-01-07T02:17:09;122.00;;;49.35;;
78183;SDS011;67442;44.570;18.610;2024-01-07T02:19:39;118.03;;;50.45;;
78183;SDS011;67442;44.570;18.610;2024-01-07T02:22:10;175.60;;;73.13;;
78183;SDS011;67442;44.570;18.610;2024-01-07T02:24:38;119.63;;;49.70;;
78183;SDS011;67442;44.570;18.610;2024-01-07T02:27:06;140.80;;;55.10;;
78183;SDS011;67442;44.570;18.610;2024-01-07T02:29:33;127.97;;;52.45;;
78183;SDS011;67442;44.570;18.610;2024-01-07T02:32:02;133.23;;;54.38;;
78183;SDS011;67442;44.570;18.610;2024-01-07T02:34:31;134.82;;;55.95;;
78183;SDS011;67442;44.570;18.610;2024-01-07T02:37:02;138.43;;;54.08;;
78183;SDS011;67442;44.570;18.610;2024-01-07T02:39:30;145.75;;;59.10;;
78183;SDS011;67442;44.570;18.610;2024-01-07T02:41:58;149.85;;;64.68;;
78183;SDS011;67442;44.570;18.610;2024-01-07T02:44:25;136.38;;;57.72;;
78183;SDS011;67442;44.570;18.610;2024-01-07T02:46:57;161.52;;;68.82;;
78183;SDS011;67442;44.570;18.610;2024-01-07T02:49:28;166.60;;;71.55;;
78183;SDS011;67442;44.570;18.610;2024-01-07T02:51:56;161.07;;;68.75;;
78183;SDS011;67442;44.570;18.610;2024-01-07T02:54:28;127.10;;;54.38;;
78183;SDS011;67442;44.570;18.610;2024-01-07T02:56:55;124.40;;;53.92;;
78183;SDS011;67442;44.570;18.610;2024-01-07T02:59:23;111.72;;;47.33;;
78183;SDS011;67442;44.570;18.610;2024-01-07T03:01:51;114.10;;;47.85;;
78183;SDS011;67442;44.570;18.610;2024-01-07T03:04:22;111.15;;;49.50;;
78183;SDS011;67442;44.570;18.610;2024-01-07T03:06:50;112.75;;;43.58;;
78183;SDS011;67442;44.570;18.610;2024-01-07T03:09:17;105.45;;;42.92;;
78183;SDS011;67442;44.570;18.610;2024-01-07T03:14:20;112.68;;;44.13;;
78183;SDS011;67442;44.570;18.610;2024-01-07T03:16:49;113.57;;;45.78;;
78183;SDS011;67442;44.570;18.610;2024-01-07T03:19:16;110.43;;;45.63;;
78183;SDS011;67442;44.570;18.610;2024-01-07T03:21:48;215.82;;;67.75;;
78183;SDS011;67442;44.570;18.610;2024-01-07T03:24:16;108.05;;;43.20;;
78183;SDS011;67442;44.570;18.610;2024-01-07T03:26:44;107.47;;;45.42;;
78183;SDS011;67442;44.570;18.610;2024-01-07T03:29:11;107.13;;;42.33;;
78183;SDS011;67442;44.570;18.610;2024-01-07T03:31:39;92.43;;;37.78;;
78183;SDS011;67442;44.570;18.610;2024-01-07T03:34:11;94.28;;;38.45;;
78183;SDS011;67442;44.570;18.610;2024-01-07T03:36:42;89.88;;;38.72;;
78183;SDS011;67442;44.570;18.610;2024-01-07T03:39:10;137.85;;;50.42;;
78183;SDS011;67442;44.570;18.610;2024-01-07T03:41:38;103.50;;;41.50;;
78183;SDS011;67442;44.570;18.610;2024-01-07T03:44:10;94.47;;;40.05;;
78183;SDS011;67442;44.570;18.610;2024-01-07T03:46:37;99.10;;;39.10;;
78183;SDS011;67442;44.570;18.610;2024-01-07T03:49:05;86.22;;;37.30;;
78183;SDS011;67442;44.570;18.610;2024-01-07T03:51:32;94.50;;;38.85;;
78183;SDS011;67442;44.570;18.610;2024-01-07T03:54:00;93.97;;;37.70;;
78183;SDS011;67442;44.570;18.610;2024-01-07T03:56:28;90.38;;;35.92;;
78183;SDS011;67442;44.570;18.610;2024-01-07T03:58:56;84.35;;;35.75;;
78183;SDS011;67442;44.570;18.610;2024-01-07T04:01:24;93.18;;;38.97;;
78183;SDS011;67442;44.570;18.610;2024-01-07T04:03:55;87.18;;;35.47;;
78183;SDS011;67442;44.570;18.610;2024-01-07T04:06:23;94.88;;;37.53;;
78183;SDS011;67442;44.570;18.610;2024-01-07T04:08:50;191.52;;;64.80;;
78183;SDS011;67442;44.570;18.610;2024-01-07T04:11:21;92.43;;;37.67;;
78183;SDS011;67442;44.570;18.610;2024-01-07T04:13:53;83.38;;;34.47;;
78183;SDS011;67442;44.570;18.610;2024-01-07T04:16:20;97.25;;;37.92;;
78183;SDS011;67442;44.570;18.610;2024-01-07T04:18:48;90.35;;;36.58;;
78183;SDS011;67442;44.570;18.610;2024-01-07T04:21:15;95.65;;;36.75;;
78183;SDS011;67442;44.570;18.610;2024-01-07T04:23:43;95.28;;;38.22;;
78183;SDS011;67442;44.570;18.610;2024-01-07T04:26:11;93.18;;;37.40;;
78183;SDS011;67442;44.570;18.610;2024-01-07T04:31:11;100.55;;;38.20;;
78183;SDS011;67442;44.570;18.610;2024-01-07T04:33:38;84.32;;;35.30;;
78183;SDS011;67442;44.570;18.610;2024-01-07T04:36:10;95.95;;;38.22;;
78183;SDS011;67442;44.570;18.610;2024-01-07T04:38:37;97.38;;;37.78;;
78183;SDS011;67442;44.570;18.610;2024-01-07T04:41:05;87.78;;;35.85;;
78183;SDS011;67442;44.570;18.610;2024-01-07T04:43:33;87.78;;;36.40;;
78183;SDS011;67442;44.570;18.610;2024-01-07T04:46:01;78.30;;;34.08;;
78183;SDS011;67442;44.570;18.610;2024-01-07T04:48:29;87.70;;;35.83;;
78183;SDS011;67442;44.570;18.610;2024-01-07T04:51:00;92.30;;;36.72;;
78183;SDS011;67442;44.570;18.610;2024-01-07T04:53:28;89.53;;;35.97;;
78183;SDS011;67442;44.570;18.610;2024-01-07T04:55:56;91.50;;;36.47;;
78183;SDS011;67442;44.570;18.610;2024-01-07T04:58:23;86.20;;;35.35;;
78183;SDS011;67442;44.570;18.610;2024-01-07T05:00:51;85.35;;;35.03;;
78183;SDS011;67442;44.570;18.610;2024-01-07T05:03:18;90.55;;;35.25;;
78183;SDS011;67442;44.570;18.610;2024-01-07T05:05:46;92.53;;;36.30;;
78183;SDS011;67442;44.570;18.610;2024-01-07T05:08:14;94.22;;;37.22;;
78183;SDS011;67442;44.570;18.610;2024-01-07T05:10:42;118.93;;;42.55;;
78183;SDS011;67442;44.570;18.610;2024-01-07T05:13:09;106.85;;;43.97;;
78183;SDS011;67442;44.570;18.610;2024-01-07T05:15:37;91.85;;;36.83;;
78183;SDS011;67442;44.570;18.610;2024-01-07T05:18:07;100.55;;;39.10;;
78183;SDS011;67442;44.570;18.610;2024-01-07T05:20:38;97.50;;;39.85;;
78183;SDS011;67442;44.570;18.610;2024-01-07T05:23:06;115.72;;;42.17;;
78183;SDS011;67442;44.570;18.610;2024-01-07T05:25:37;99.60;;;38.17;;
78183;SDS011;67442;44.570;18.610;2024-01-07T05:28:05;100.38;;;38.55;;
78183;SDS011;67442;44.570;18.610;2024-01-07T05:30:35;110.63;;;37.05;;
78183;SDS011;67442;44.570;18.610;2024-01-07T05:33:03;96.13;;;37.92;;
78183;SDS011;67442;44.570;18.610;2024-01-07T05:35:34;95.85;;;37.00;;
78183;SDS011;67442;44.570;18.610;2024-01-07T05:38:02;93.25;;;36.40;;
78183;SDS011;67442;44.570;18.610;2024-01-07T05:40:30;92.18;;;34.85;;
78183;SDS011;67442;44.570;18.610;2024-01-07T05:42:58;94.32;;;36.53;;
78183;SDS011;67442;44.570;18.610;2024-01-07T05:45:25;98.45;;;36.65;;
78183;SDS011;67442;44.570;18.610;2024-01-07T05:47:52;87.95;;;33.92;;
78183;SDS011;67442;44.570;18.610;2024-01-07T05:50:24;88.22;;;35.80;;
78183;SDS011;67442;44.570;18.610;2024-01-07T05:52:51;96.03;;;35.70;;
78183;SDS011;67442;44.570;18.610;2024-01-07T05:55:18;95.60;;;37.35;;
78183;SDS011;67442;44.570;18.610;2024-01-07T05:57:46;106.55;;;38.70;;
78183;SDS011;67442;44.570;18.610;2024-01-07T06:00:17;109.85;;;40.65;;
78183;SDS011;67442;44.570;18.610;2024-01-07T06:02:45;105.78;;;39.58;;
78183;SDS011;67442;44.570;18.610;2024-01-07T06:05:13;106.88;;;38.72;;
78183;SDS011;67442;44.570;18.610;2024-01-07T06:07:41;97.25;;;38.58;;
78183;SDS011;67442;44.570;18.610;2024-01-07T06:10:08;108.78;;;40.35;;
78183;SDS011;67442;44.570;18.610;2024-01-07T06:12:36;111.97;;;40.95;;
78183;SDS011;67442;44.570;18.610;2024-01-07T06:15:04;114.53;;;42.63;;
78183;SDS011;67442;44.570;18.610;2024-01-07T06:17:33;102.93;;;40.78;;
78183;SDS011;67442;44.570;18.610;2024-01-07T06:20:02;106.55;;;39.50;;
78183;SDS011;67442;44.570;18.610;2024-01-07T06:22:29;107.65;;;40.85;;
78183;SDS011;67442;44.570;18.610;2024-01-07T06:25:01;144.40;;;52.90;;
78183;SDS011;67442;44.570;18.610;2024-01-07T06:27:28;103.03;;;39.85;;
78183;SDS011;67442;44.570;18.610;2024-01-07T06:29:56;102.00;;;39.97;;
78183;SDS011;67442;44.570;18.610;2024-01-07T06:32:24;99.72;;;40.35;;
78183;SDS011;67442;44.570;18.610;2024-01-07T06:34:52;103.68;;;40.65;;
78183;SDS011;67442;44.570;18.610;2024-01-07T06:37:23;112.15;;;41.35;;
78183;SDS011;67442;44.570;18.610;2024-01-07T06:39:51;113.07;;;42.15;;
78183;SDS011;67442;44.570;18.610;2024-01-07T06:42:22;102.97;;;40.88;;
78183;SDS011;67442;44.570;18.610;2024-01-07T06:44:50;97.00;;;39.53;;
78183;SDS011;67442;44.570;18.610;2024-01-07T06:47:17;98.20;;;39.92;;
78183;SDS011;67442;44.570;18.610;2024-01-07T06:49:45;97.57;;;38.15;;
78183;SDS011;67442;44.570;18.610;2024-01-07T06:52:13;95.22;;;36.83;;
78183;SDS011;67442;44.570;18.610;2024-01-07T06:54:41;101.93;;;38.70;;
78183;SDS011;67442;44.570;18.610;2024-01-07T06:57:08;89.93;;;37.67;;
78183;SDS011;67442;44.570;18.610;2024-01-07T06:59:36;107.38;;;40.28;;
78183;SDS011;67442;44.570;18.610;2024-01-07T07:02:04;90.88;;;37.13;;
78183;SDS011;67442;44.570;18.610;2024-01-07T07:04:32;111.95;;;45.97;;
78183;SDS011;67442;44.570;18.610;2024-01-07T07:07:02;139.50;;;50.83;;
78183;SDS011;67442;44.570;18.610;2024-01-07T07:09:29;99.90;;;41.30;;
78183;SDS011;67442;44.570;18.610;2024-01-07T07:12:06;108.18;;;43.28;;
78183;SDS011;67442;44.570;18.610;2024-01-07T07:14:47;99.95;;;38.85;;
78183;SDS011;67442;44.570;18.610;2024-01-07T07:17:15;104.30;;;40.67;;
78183;SDS011;67442;44.570;18.610;2024-01-07T07:19:43;96.65;;;39.22;;
78183;SDS011;67442;44.570;18.610;2024-01-07T07:22:10;86.68;;;35.45;;
78183;SDS011;67442;44.570;18.610;2024-01-07T07:24:42;93.20;;;36.92;;
78183;SDS011;67442;44.570;18.610;2024-01-07T07:27:10;97.65;;;41.28;;
78183;SDS011;67442;44.570;18.610;2024-01-07T07:29:38;142.05;;;48.65;;
78183;SDS011;67442;44.570;18.610;2024-01-07T07:32:05;92.10;;;38.50;;
78183;SDS011;67442;44.570;18.610;2024-01-07T07:34:34;83.57;;;35.40;;
78183;SDS011;67442;44.570;18.610;2024-01-07T07:37:05;98.38;;;43.42;;
78183;SDS011;67442;44.570;18.610;2024-01-07T07:39:36;100.15;;;42.78;;
78183;SDS011;67442;44.570;18.610;2024-01-07T07:42:07;96.35;;;40.33;;
78183;SDS011;67442;44.570;18.610;2024-01-07T07:44:36;97.18;;;40.47;;
78183;SDS011;67442;44.570;18.610;2024-01-07T07:47:04;108.68;;;43.58;;
78183;SDS011;67442;44.570;18.610;2024-01-07T07:49:33;212.32;;;74.97;;
78183;SDS011;67442;44.570;18.610;2024-01-07T07:52:02;94.63;;;40.78;;
78183;SDS011;67442;44.570;18.610;2024-01-07T07:54:31;95.15;;;38.78;;
78183;SDS011;67442;44.570;18.610;2024-01-07T07:57:02;99.00;;;39.70;;
78183;SDS011;67442;44.570;18.610;2024-01-07T07:59:30;95.80;;;39.67;;
78183;SDS011;67442;44.570;18.610;2024-01-07T08:01:58;119.50;;;44.95;;
78183;SDS011;67442;44.570;18.610;2024-01-07T08:04:26;135.25;;;49.00;;
78183;SDS011;67442;44.570;18.610;2024-01-07T08:06:57;105.47;;;38.55;;
78183;SDS011;67442;44.570;18.610;2024-01-07T08:09:29;103.10;;;41.90;;
78183;SDS011;67442;44.570;18.610;2024-01-07T08:11:56;82.95;;;37.35;;
78183;SDS011;67442;44.570;18.610;2024-01-07T08:14:24;187.73;;;73.75;;
78183;SDS011;67442;44.570;18.610;2024-01-07T08:16:52;137.82;;;55.13;;
78183;SDS011;67442;44.570;18.610;2024-01-07T08:19:19;126.72;;;52.15;;
78183;SDS011;67442;44.570;18.610;2024-01-07T08:21:50;184.15;;;77.80;;
78183;SDS011;67442;44.570;18.610;2024-01-07T08:24:22;93.95;;;40.75;;
78183;SDS011;67442;44.570;18.610;2024-01-07T08:26:50;106.15;;;47.58;;
78183;SDS011;67442;44.570;18.610;2024-01-07T08:29:17;87.38;;;36.90;;
78183;SDS011;67442;44.570;18.610;2024-01-07T08:31:48;207.00;;;86.78;;
78183;SDS011;67442;44.570;18.610;2024-01-07T08:34:16;173.50;;;68.85;;
78183;SDS011;67442;44.570;18.610;2024-01-07T08:36:47;133.38;;;53.63;;
78183;SDS011;67442;44.570;18.610;2024-01-07T08:39:15;109.45;;;47.42;;
78183;SDS011;67442;44.570;18.610;2024-01-07T08:41:42;90.15;;;36.17;;
78183;SDS011;67442;44.570;18.610;2024-01-07T08:44:13;88.10;;;37.95;;
78183;SDS011;67442;44.570;18.610;2024-01-07T08:46:44;78.35;;;32.63;;
78183;SDS011;67442;44.570;18.610;2024-01-07T08:49:12;72.28;;;33.40;;
78183;SDS011;67442;44.570;18.610;2024-01-07T08:51:40;99.15;;;40.00;;
78183;SDS011;67442;44.570;18.610;2024-01-07T08:54:08;78.35;;;34.25;;
78183;SDS011;67442;44.570;18.610;2024-01-07T08:56:39;80.70;;;34.13;;
78183;SDS011;67442;44.570;18.610;2024-01-07T08:59:06;69.55;;;29.92;;
78183;SDS011;67442;44.570;18.610;2024-01-07T09:01:34;68.65;;;31.30;;
78183;SDS011;67442;44.570;18.610;2024-01-07T09:04:05;69.65;;;28.65;;
78183;SDS011;67442;44.570;18.610;2024-01-07T09:06:32;65.43;;;29.98;;
78183;SDS011;67442;44.570;18.610;2024-01-07T09:09:00;70.35;;;31.30;;
78183;SDS011;67442;44.570;18.610;2024-01-07T09:11:31;77.40;;;32.67;;
78183;SDS011;67442;44.570;18.610;2024-01-07T09:13:59;71.43;;;31.02;;
78183;SDS011;67442;44.570;18.610;2024-01-07T09:16:27;71.88;;;31.75;;
78183;SDS011;67442;44.570;18.610;2024-01-07T09:18:55;69.65;;;31.48;;
78183;SDS011;67442;44.570;18.610;2024-01-07T09:21:23;98.63;;;39.90;;
78183;SDS011;67442;44.570;18.610;2024-01-07T09:23:51;79.68;;;34.05;;
78183;SDS011;67442;44.570;18.610;2024-01-07T09:26:19;72.20;;;29.40;;
78183;SDS011;67442;44.570;18.610;2024-01-07T09:28:49;72.72;;;32.05;;
78183;SDS011;67442;44.570;18.610;2024-01-07T09:31:17;79.85;;;34.85;;
78183;SDS011;67442;44.570;18.610;2024-01-07T09:33:48;85.45;;;38.10;;
78183;SDS011;67442;44.570;18.610;2024-01-07T09:36:20;81.85;;;35.67;;
78183;SDS011;67442;44.570;18.610;2024-01-07T09:38:48;79.95;;;34.95;;
78183;SDS011;67442;44.570;18.610;2024-01-07T09:41:15;84.88;;;35.60;;
78183;SDS011;67442;44.570;18.610;2024-01-07T09:43:45;77.07;;;34.15;;
78183;SDS011;67442;44.570;18.610;2024-01-07T09:46:13;103.47;;;44.70;;
78183;SDS011;67442;44.570;18.610;2024-01-07T09:48:40;83.30;;;36.50;;
78183;SDS011;67442;44.570;18.610;2024-01-07T09:51:08;67.32;;;30.92;;
78183;SDS011;67442;44.570;18.610;2024-01-07T09:53:38;94.03;;;43.55;;
78183;SDS011;67442;44.570;18.610;2024-01-07T09:56:12;81.75;;;36.17;;
78183;SDS011;67442;44.570;18.610;2024-01-07T09:58:50;111.55;;;50.90;;
78183;SDS011;67442;44.570;18.610;2024-01-07T10:01:17;80.60;;;35.45;;
78183;SDS011;67442;44.570;18.610;2024-01-07T10:03:44;125.55;;;49.65;;
78183;SDS011;67442;44.570;18.610;2024-01-07T10:06:18;88.40;;;37.22;;
78183;SDS011;67442;44.570;18.610;2024-01-07T10:09:06;88.57;;;36.67;;
78183;SDS011;67442;44.570;18.610;2024-01-07T10:11:34;98.93;;;44.72;;
78183;SDS011;67442;44.570;18.610;2024-01-07T10:14:01;89.07;;;37.35;;
78183;SDS011;67442;44.570;18.610;2024-01-07T10:16:32;91.45;;;40.00;;
78183;SDS011;67442;44.570;18.610;2024-01-07T10:19:01;82.55;;;35.38;;
78183;SDS011;67442;44.570;18.610;2024-01-07T10:21:31;70.93;;;35.63;;
78183;SDS011;67442;44.570;18.610;2024-01-07T10:24:11;68.13;;;31.10;;
78183;SDS011;67442;44.570;18.610;2024-01-07T10:26:40;84.13;;;36.92;;
78183;SDS011;67442;44.570;18.610;2024-01-07T10:29:12;60.55;;;28.45;;
78183;SDS011;67442;44.570;18.610;2024-01-07T10:31:44;63.47;;;27.52;;
78183;SDS011;67442;44.570;18.610;2024-01-07T10:34:11;61.20;;;26.85;;
78183;SDS011;67442;44.570;18.610;2024-01-07T10:36:41;62.08;;;28.70;;
78183;SDS011;67442;44.570;18.610;2024-01-07T10:39:10;64.28;;;29.80;;
78183;SDS011;67442;44.570;18.610;2024-01-07T10:41:38;67.90;;;31.30;;
78183;SDS011;67442;44.570;18.610;2024-01-07T10:44:10;62.95;;;28.38;;
78183;SDS011;67442;44.570;18.610;2024-01-07T10:46:37;69.63;;;31.00;;
78183;SDS011;67442;44.570;18.610;2024-01-07T10:49:14;75.88;;;34.45;;
78183;SDS011;67442;44.570;18.610;2024-01-07T10:52:10;71.00;;;34.40;;
78183;SDS011;67442;44.570;18.610;2024-01-07T10:54:37;62.95;;;30.50;;
78183;SDS011;67442;44.570;18.610;2024-01-07T10:59:50;51.55;;;23.45;;
78183;SDS011;67442;44.570;18.610;2024-01-07T11:02:19;63.17;;;31.23;;
78183;SDS011;67442;44.570;18.610;2024-01-07T11:07:51;55.97;;;25.27;;
78183;SDS011;67442;44.570;18.610;2024-01-07T11:10:33;56.58;;;26.17;;
78183;SDS011;67442;44.570;18.610;2024-01-07T11:13:07;90.65;;;42.45;;
78183;SDS011;67442;44.570;18.610;2024-01-07T11:18:22;54.60;;;25.17;;
78183;SDS011;67442;44.570;18.610;2024-01-07T11:21:00;51.78;;;25.60;;
78183;SDS011;67442;44.570;18.610;2024-01-07T11:25:56;58.95;;;26.42;;
78183;SDS011;67442;44.570;18.610;2024-01-07T11:31:08;62.28;;;30.23;;
78183;SDS011;67442;44.570;18.610;2024-01-07T11:33:38;53.08;;;26.02;;
78183;SDS011;67442;44.570;18.610;2024-01-07T11:36:07;63.50;;;30.48;;
78183;SDS011;67442;44.570;18.610;2024-01-07T11:38:36;59.55;;;31.20;;
78183;SDS011;67442;44.570;18.610;2024-01-07T11:41:05;57.63;;;26.40;;
78183;SDS011;67442;44.570;18.610;2024-01-07T11:43:34;54.40;;;26.20;;
78183;SDS011;67442;44.570;18.610;2024-01-07T11:46:05;57.05;;;29.10;;
78183;SDS011;67442;44.570;18.610;2024-01-07T11:48:37;81.35;;;38.65;;
78183;SDS011;67442;44.570;18.610;2024-01-07T11:51:04;64.95;;;30.48;;
78183;SDS011;67442;44.570;18.610;2024-01-07T11:53:31;65.13;;;32.10;;
78183;SDS011;67442;44.570;18.610;2024-01-07T11:55:59;83.03;;;37.35;;
78183;SDS011;67442;44.570;18.610;2024-01-07T11:58:30;85.22;;;40.72;;
78183;SDS011;67442;44.570;18.610;2024-01-07T12:00:57;87.38;;;38.55;;
78183;SDS011;67442;44.570;18.610;2024-01-07T12:03:25;69.63;;;33.05;;
78183;SDS011;67442;44.570;18.610;2024-01-07T12:05:52;84.40;;;36.97;;
78183;SDS011;67442;44.570;18.610;2024-01-07T12:08:20;68.90;;;31.08;;
78183;SDS011;67442;44.570;18.610;2024-01-07T12:10:48;54.45;;;25.55;;
78183;SDS011;67442;44.570;18.610;2024-01-07T12:13:16;50.75;;;24.83;;
78183;SDS011;67442;44.570;18.610;2024-01-07T12:15:48;47.63;;;24.25;;
78183;SDS011;67442;44.570;18.610;2024-01-07T12:18:19;54.10;;;25.98;;
78183;SDS011;67442;44.570;18.610;2024-01-07T12:20:57;95.25;;;39.95;;
78183;SDS011;67442;44.570;18.610;2024-01-07T12:23:24;133.07;;;61.25;;
78183;SDS011;67442;44.570;18.610;2024-01-07T12:25:52;60.40;;;30.88;;
78183;SDS011;67442;44.570;18.610;2024-01-07T12:28:19;62.33;;;32.58;;
78183;SDS011;67442;44.570;18.610;2024-01-07T12:30:50;48.45;;;23.85;;
78183;SDS011;67442;44.570;18.610;2024-01-07T12:33:21;45.72;;;23.20;;
78183;SDS011;67442;44.570;18.610;2024-01-07T12:36:06;46.58;;;22.85;;
78183;SDS011;67442;44.570;18.610;2024-01-07T12:38:38;54.45;;;25.80;;
78183;SDS011;67442;44.570;18.610;2024-01-07T12:41:05;47.75;;;23.20;;
78183;SDS011;67442;44.570;18.610;2024-01-07T12:43:33;45.22;;;22.75;;
78183;SDS011;67442;44.570;18.610;2024-01-07T12:46:01;54.55;;;27.27;;
78183;SDS011;67442;44.570;18.610;2024-01-07T12:48:31;54.50;;;25.58;;
78183;SDS011;67442;44.570;18.610;2024-01-07T12:51:00;54.80;;;26.80;;
78183;SDS011;67442;44.570;18.610;2024-01-07T12:53:28;53.00;;;24.92;;
78183;SDS011;67442;44.570;18.610;2024-01-07T12:55:59;58.70;;;29.02;;
78183;SDS011;67442;44.570;18.610;2024-01-07T12:58:27;126.90;;;54.33;;
78183;SDS011;67442;44.570;18.610;2024-01-07T13:00:58;187.73;;;73.13;;
78183;SDS011;67442;44.570;18.610;2024-01-07T13:03:29;55.83;;;26.40;;
78183;SDS011;67442;44.570;18.610;2024-01-07T13:05:56;80.95;;;35.90;;
78183;SDS011;67442;44.570;18.610;2024-01-07T13:08:29;45.75;;;23.88;;
78183;SDS011;67442;44.570;18.610;2024-01-07T13:10:57;46.60;;;23.60;;
78183;SDS011;67442;44.570;18.610;2024-01-07T13:13:26;63.30;;;29.60;;
78183;SDS011;67442;44.570;18.610;2024-01-07T13:15:57;57.70;;;25.77;;
78183;SDS011;67442;44.570;18.610;2024-01-07T13:18:27;67.80;;;28.35;;
78183;SDS011;67442;44.570;18.610;2024-01-07T13:20:55;71.45;;;31.80;;
78183;SDS011;67442;44.570;18.610;2024-01-07T13:23:22;26.80;;;12.80;;
78183;SDS011;67442;44.570;18.610;2024-01-07T13:25:52;19.30;;;9.77;;
78183;SDS011;67442;44.570;18.610;2024-01-07T13:28:19;42.58;;;17.30;;
78183;SDS011;67442;44.570;18.610;2024-01-07T13:30:47;25.90;;;11.93;;
78183;SDS011;67442;44.570;18.610;2024-01-07T13:33:15;201.20;;;74.68;;
78183;SDS011;67442;44.570;18.610;2024-01-07T13:35:51;32.60;;;15.57;;
78183;SDS011;67442;44.570;18.610;2024-01-07T13:38:20;23.50;;;11.27;;
78183;SDS011;67442;44.570;18.610;2024-01-07T13:40:47;21.02;;;9.05;;
78183;SDS011;67442;44.570;18.610;2024-01-07T13:43:14;53.58;;;23.70;;
78183;SDS011;67442;44.570;18.610;2024-01-07T13:45:42;24.65;;;12.30;;
78183;SDS011;67442;44.570;18.610;2024-01-07T13:48:10;22.27;;;10.70;;
78183;SDS011;67442;44.570;18.610;2024-01-07T13:50:37;23.63;;;10.70;;
78183;SDS011;67442;44.570;18.610;2024-01-07T13:53:05;33.63;;;16.27;;
78183;SDS011;67442;44.570;18.610;2024-01-07T13:55:33;30.05;;;13.63;;
78183;SDS011;67442;44.570;18.610;2024-01-07T13:58:01;17.83;;;9.40;;
78183;SDS011;67442;44.570;18.610;2024-01-07T14:00:28;19.33;;;10.52;;
78183;SDS011;67442;44.570;18.610;2024-01-07T14:02:57;13.40;;;7.18;;
78183;SDS011;67442;44.570;18.610;2024-01-07T14:05:25;16.88;;;8.55;;
78183;SDS011;67442;44.570;18.610;2024-01-07T14:07:52;8.73;;;4.95;;
78183;SDS011;67442;44.570;18.610;2024-01-07T14:10:23;13.18;;;7.07;;
78183;SDS011;67442;44.570;18.610;2024-01-07T14:12:51;13.02;;;6.07;;
78183;SDS011;67442;44.570;18.610;2024-01-07T14:15:19;11.48;;;5.68;;
78183;SDS011;67442;44.570;18.610;2024-01-07T14:17:46;14.95;;;7.18;;
78183;SDS011;67442;44.570;18.610;2024-01-07T14:20:18;61.88;;;24.40;;
78183;SDS011;67442;44.570;18.610;2024-01-07T14:22:47;28.63;;;11.73;;
78183;SDS011;67442;44.570;18.610;2024-01-07T14:25:15;11.00;;;5.68;;
78183;SDS011;67442;44.570;18.610;2024-01-07T14:27:47;10.07;;;4.88;;
78183;SDS011;67442;44.570;18.610;2024-01-07T14:30:14;7.75;;;4.57;;
78183;SDS011;67442;44.570;18.610;2024-01-07T14:32:42;9.25;;;4.68;;
78183;SDS011;67442;44.570;18.610;2024-01-07T14:35:13;26.88;;;11.55;;
78183;SDS011;67442;44.570;18.610;2024-01-07T14:37:41;6.57;;;3.83;;